Time;durP1;ratioP1;P1;durP2;ratioP2;P2;SDS_P1;SDS_P2;PMS_P1;PMS_P2;Temp;Humidity;BMP_temperature;BMP_pressure;BME280_temperature;BME280_humidity;BME280_pressure;Samples;Min_cycle;Max_cycle;Signal;HPM_P1;HPM_P2
2023/06/06 01:42:12;;;;;;;14.25;7.32;;;;;;;7.90;100.00;93032.13;2588322;22;20457;-85
2023/06/06 01:43:16;;;;;;;14.10;8.25;;;;;;;7.81;100.00;93029.94;2593254;22;20015;-87
2023/06/06 01:44:19;;;;;;;11.18;8.57;;;;;;;7.82;100.00;93034.13;2569651;22;20023;-86
2023/06/06 01:45:27;;;;;;;13.18;7.82;;;;;;;7.80;100.00;93039.84;2568899;22;20004;-84
2023/06/06 01:46:45;;;;;;;17.33;8.43;;;;;;;7.80;100.00;93033.75;2582412;22;20004;-86
2023/06/06 01:48:05;;;;;;;13.07;7.80;;;;;;;7.75;100.00;93040.28;2600209;22;20011;-87
2023/06/06 01:49:34;;;;;;;14.90;8.20;;;;;;;7.80;100.00;93037.19;2593084;22;20065;-86
2023/06/06 01:50:40;;;;;;;17.48;7.75;;;;;;;7.83;100.00;93032.97;2592355;22;20468;-86
2023/06/06 01:51:52;;;;;;;15.15;7.88;;;;;;;7.74;100.00;93038.03;2606265;22;20005;-86
2023/06/06 01:53:02;;;;;;;12.20;8.02;;;;;;;7.72;100.00;93033.09;2605908;22;19999;-84
2023/06/06 01:54:10;;;;;;;14.85;8.30;;;;;;;7.67;100.00;93035.44;2593187;22;20015;-84
2023/06/06 01:55:20;;;;;;;12.93;7.88;;;;;;;7.72;100.00;93045.66;2570516;22;20088;-87
2023/06/06 01:56:33;;;;;;;15.18;8.13;;;;;;;7.67;100.00;93030.88;2572840;22;20097;-86
2023/06/06 01:57:41;;;;;;;11.55;7.75;;;;;;;7.66;100.00;93037.34;2585199;22;20004;-84
2023/06/06 01:58:50;;;;;;;12.48;7.90;;;;;;;7.70;100.00;93039.97;2592760;22;20450;-86
2023/06/06 01:59:54;;;;;;;12.55;8.00;;;;;;;7.75;100.00;93031.56;2594775;22;20094;-85
2023/06/06 02:01:03;;;;;;;12.43;8.00;;;;;;;7.72;100.00;93032.34;2593151;22;20003;-86
2023/06/06 02:02:14;;;;;;;12.18;8.23;;;;;;;7.68;100.00;93035.06;2571250;22;20004;-86
2023/06/06 02:03:20;;;;;;;12.75;7.95;;;;;;;7.68;100.00;93036.94;2571703;22;20432;-84
2023/06/06 02:04:31;;;;;;;12.98;7.85;;;;;;;7.68;100.00;93029.75;2582976;22;20012;-86
2023/06/06 02:05:39;;;;;;;11.07;7.78;;;;;;;7.67;100.00;93032.78;2594914;22;20008;-87
2023/06/06 02:06:46;;;;;;;15.35;8.40;;;;;;;7.65;100.00;93032.44;2592989;22;20008;-85
2023/06/06 02:07:53;;;;;;;14.18;8.10;;;;;;;7.61;100.00;93031.72;2582121;22;20004;-86
2023/06/06 02:08:55;;;;;;;11.85;8.40;;;;;;;7.65;100.00;93027.13;2581156;22;20079;-87
2023/06/06 02:10:05;;;;;;;10.60;7.50;;;;;;;7.63;100.00;93032.81;2580735;22;20012;-84
2023/06/06 02:11:13;;;;;;;12.02;7.95;;;;;;;7.71;100.00;93034.25;2582049;22;20035;-85
2023/06/06 02:12:16;;;;;;;15.02;8.43;;;;;;;7.67;100.00;93032.78;2581488;22;20329;-86
2023/06/06 02:13:25;;;;;;;13.77;8.77;;;;;;;7.64;100.00;93036.22;2593809;22;20378;-85
2023/06/06 02:14:33;;;;;;;13.77;8.80;;;;;;;7.58;100.00;93031.34;2593388;22;20086;-88
2023/06/06 02:15:41;;;;;;;12.68;8.80;;;;;;;7.57;100.00;93037.09;2571232;22;20063;-86
2023/06/06 02:16:45;;;;;;;13.45;8.57;;;;;;;7.69;100.00;93038.47;2596002;22;20041;-85
2023/06/06 02:17:48;;;;;;;12.30;8.27;;;;;;;7.71;100.00;93041.47;2605381;22;20003;-86
2023/06/06 02:19:00;;;;;;;11.80;8.57;;;;;;;7.71;100.00;93042.22;2580672;22;20439;-86
2023/06/06 02:31:53;;;;;;;;;;;;;;;7.45;100.00;93046.34;2614994;22;20078;-86
2023/06/06 02:33:01;;;;;;;19.30;10.23;;;;;;;7.62;100.00;93041.22;2584387;23;19907;-87
2023/06/06 02:34:07;;;;;;;17.23;9.60;;;;;;;7.53;100.00;93041.69;2573999;22;20046;-86
2023/06/06 02:35:11;;;;;;;15.00;9.02;;;;;;;7.38;100.00;93051.00;2572605;23;20297;-85
2023/06/06 02:36:20;;;;;;;12.98;9.13;;;;;;;7.43;100.00;93051.31;2585622;22;20014;-84
2023/06/06 02:37:41;;;;;;;17.83;9.88;;;;;;;7.38;100.00;93049.09;2596458;22;20004;-83
2023/06/06 02:38:42;;;;;;;13.60;9.10;;;;;;;7.48;100.00;93056.19;2575977;23;20542;-86
2023/06/06 02:39:43;;;;;;;14.73;9.30;;;;;;;7.46;100.00;93047.09;2571431;22;20004;-84
2023/06/06 02:40:44;;;;;;;15.57;9.48;;;;;;;7.40;100.00;93056.66;2583686;22;20054;-85
2023/06/06 02:41:53;;;;;;;13.02;8.82;;;;;;;7.35;100.00;93054.44;2573175;23;20000;-83
2023/06/06 02:42:55;;;;;;;16.42;9.20;;;;;;;7.43;100.00;93058.53;2560583;23;20027;-85
2023/06/06 02:43:56;;;;;;;13.85;9.20;;;;;;;7.46;100.00;93050.53;2572085;22;20004;-85
2023/06/06 02:44:57;;;;;;;13.35;9.05;;;;;;;7.48;100.00;93058.09;2571489;23;20078;-84
2023/06/06 02:45:59;;;;;;;22.95;9.52;;;;;;;7.36;100.00;93061.25;2571564;22;20015;-85
2023/06/06 02:47:20;;;;;;;12.85;8.68;;;;;;;7.36;100.00;93063.91;2575920;23;20000;-82
2023/06/06 02:48:23;;;;;;;15.13;9.18;;;;;;;7.38;100.00;93058.97;2563387;23;20004;-84
2023/06/06 02:49:24;;;;;;;12.30;9.20;;;;;;;7.33;100.00;93060.13;2571664;23;20000;-85
2023/06/06 02:50:28;;;;;;;15.30;9.15;;;;;;;7.32;100.00;93059.38;2584003;22;20015;-83
2023/06/06 02:51:44;;;;;;;13.52;8.50;;;;;;;7.35;100.00;93068.47;2596689;22;20045;-87
2023/06/06 02:52:46;;;;;;;12.93;8.52;;;;;;;7.30;100.00;93066.25;2596956;22;20023;-84
2023/06/06 02:53:48;;;;;;;13.52;9.00;;;;;;;7.28;100.00;93053.34;2584084;23;20058;-86
2023/06/06 02:54:49;;;;;;;15.88;9.40;;;;;;;7.35;100.00;93067.72;2571814;22;20198;-85
2023/06/06 02:55:50;;;;;;;13.38;8.52;;;;;;;7.29;100.00;93059.44;2584221;23;20344;-86
2023/06/06 02:56:51;;;;;;;14.57;8.80;;;;;;;7.36;100.00;93058.59;2571331;22;20399;-85
2023/06/06 02:57:53;;;;;;;14.23;8.80;;;;;;;7.27;100.00;93065.13;2571835;23;20015;-82
2023/06/06 02:58:54;;;;;;;16.55;8.90;;;;;;;7.30;100.00;93066.25;2559047;23;20364;-84
2023/06/06 02:59:55;;;;;;;11.88;8.43;;;;;;;7.24;100.00;93063.28;2559193;23;20005;-85
2023/06/06 03:00:57;;;;;;;14.32;8.50;;;;;;;7.23;100.00;93067.06;2558591;23;20434;-83
2023/06/06 03:01:58;;;;;;;12.10;8.48;;;;;;;7.29;100.00;93068.16;2572002;23;20321;-87
2023/06/06 03:02:59;;;;;;;14.43;7.78;;;;;;;7.35;100.00;93063.16;2584191;22;20034;-85
2023/06/06 03:04:01;;;;;;;14.95;8.68;;;;;;;7.31;100.00;93062.44;2584101;22;20077;-86
2023/06/06 03:05:03;;;;;;;10.60;7.85;;;;;;;7.34;100.00;93061.66;2571763;23;20450;-85
2023/06/06 03:06:06;;;;;;;11.60;8.73;;;;;;;7.32;100.00;93062.03;2571562;22;20008;-85
2023/06/06 03:07:16;;;;;;;14.25;8.75;;;;;;;7.30;100.00;93063.59;2572593;23;20004;-88
2023/06/06 03:08:20;;;;;;;14.02;8.85;;;;;;;7.27;100.00;93059.06;2574816;22;20005;-85
2023/06/06 03:09:24;;;;;;;13.52;8.38;;;;;;;7.26;100.00;93058.31;2572096;23;20110;-86
2023/06/06 03:10:25;;;;;;;12.70;8.55;;;;;;;7.27;100.00;93061.72;2571725;23;20476;-84
2023/06/06 03:11:26;;;;;;;13.52;9.30;;;;;;;7.23;100.00;93061.00;2571219;22;20007;-86
2023/06/06 03:12:27;;;;;;;18.58;9.02;;;;;;;7.24;100.00;93065.16;2583945;23;20011;-84
2023/06/06 03:13:28;;;;;;;13.75;8.85;;;;;;;7.22;100.00;93062.16;2559264;23;20005;-87
2023/06/06 03:14:29;;;;;;;11.90;9.20;;;;;;;7.23;100.00;93063.66;2583971;22;20007;-84
2023/06/06 03:15:30;;;;;;;15.52;9.25;;;;;;;7.19;100.00;93053.06;2583835;23;20000;-84
2023/06/06 03:16:34;;;;;;;12.07;8.25;;;;;;;7.24;100.00;93062.50;2559540;23;20475;-87
2023/06/06 03:17:40;;;;;;;12.45;9.23;;;;;;;7.11;100.00;93061.50;2562248;23;20035;-85
2023/06/06 03:18:46;;;;;;;11.98;8.68;;;;;;;7.19;100.00;93061.03;2585200;22;20059;-85
2023/06/06 03:19:48;;;;;;;11.55;8.57;;;;;;;7.20;100.00;93067.88;2572410;23;20475;-87
2023/06/06 03:20:53;;;;;;;12.82;9.07;;;;;;;7.20;100.00;93061.78;2571303;23;20012;-86
2023/06/06 03:21:54;;;;;;;13.15;8.98;;;;;;;7.25;100.00;93062.13;2573089;22;20005;-85
2023/06/06 03:22:57;;;;;;;11.75;8.80;;;;;;;7.20;100.00;93067.09;2583621;22;20011;-82
2023/06/06 03:24:00;;;;;;;13.40;9.20;;;;;;;7.18;100.00;93064.09;2571657;23;20051;-83
2023/06/06 03:25:01;;;;;;;15.27;8.88;;;;;;;7.17;100.00;93057.28;2572720;22;20007;-82
2023/06/06 03:26:03;;;;;;;11.32;8.50;;;;;;;7.10;100.00;93058.09;2571461;23;20005;-84
2023/06/06 03:27:05;;;;;;;12.02;8.88;;;;;;;7.13;100.00;93059.22;2571638;23;20004;-85
2023/06/06 03:28:06;;;;;;;14.65;9.10;;;;;;;7.15;100.00;93056.91;2571542;22;20000;-85
2023/06/06 03:29:07;;;;;;;12.13;9.30;;;;;;;7.12;100.00;93057.72;2571235;23;20083;-86
2023/06/06 03:30:10;;;;;;;13.85;8.85;;;;;;;7.09;100.00;93061.16;2571825;22;20028;-84
2023/06/06 03:31:23;;;;;;;12.18;9.07;;;;;;;7.04;100.00;93060.44;2583489;22;20363;-84
2023/06/06 03:32:29;;;;;;;15.43;9.25;;;;;;;7.09;100.00;93061.91;2571873;23;20008;-85
2023/06/06 03:33:33;;;;;;;10.13;8.43;;;;;;;7.12;100.00;93060.38;2570554;22;20001;-84
2023/06/06 03:34:41;;;;;;;14.50;9.60;;;;;;;7.26;100.00;93065.53;2569239;23;20000;-85
2023/06/06 03:35:59;;;;;;;11.75;8.68;;;;;;;7.19;100.00;93063.69;2575409;22;20071;-83
2023/06/06 03:37:01;;;;;;;13.32;9.13;;;;;;;7.18;100.00;93066.75;2580891;23;20000;-84
2023/06/06 03:38:09;;;;;;;13.75;8.43;;;;;;;7.05;100.00;93058.53;2569100;23;20038;-85
2023/06/06 03:39:13;;;;;;;14.90;9.05;;;;;;;7.07;100.00;93066.88;2559417;23;20092;-83
2023/06/06 03:40:23;;;;;;;10.40;8.30;;;;;;;7.11;100.00;93072.13;2569201;23;20451;-84
2023/06/06 03:41:31;;;;;;;15.95;9.00;;;;;;;7.17;100.00;93059.94;2559920;23;20096;-85
2023/06/06 03:42:56;;;;;;;12.60;8.73;;;;;;;7.16;100.00;93069.06;2564868;23;20000;-85
2023/06/06 03:44:06;;;;;;;15.60;8.70;;;;;;;7.17;100.00;93068.66;2586497;22;20091;-85
2023/06/06 03:45:12;;;;;;;13.18;8.70;;;;;;;7.12;100.00;93065.69;2570461;23;20009;-86
2023/06/06 03:46:15;;;;;;;15.82;9.13;;;;;;;7.13;100.00;93072.50;2558158;23;20013;-86
2023/06/06 03:47:25;;;;;;;14.77;9.02;;;;;;;7.18;100.00;93080.03;2557079;23;20099;-84
2023/06/06 03:48:34;;;;;;;13.75;9.27;;;;;;;7.18;100.00;93075.47;2570443;23;20015;-84
2023/06/06 03:49:42;;;;;;;13.80;9.80;;;;;;;7.17;100.00;93073.97;2570093;23;20015;-85
2023/06/06 03:50:52;;;;;;;13.38;8.90;;;;;;;7.17;100.00;93075.88;2559280;23;20008;-85
2023/06/06 03:51:57;;;;;;;11.95;8.95;;;;;;;7.22;100.00;93076.19;2559905;23;20356;-84
2023/06/06 03:53:10;;;;;;;17.08;9.10;;;;;;;7.17;100.00;93071.31;2570426;22;20008;-85
2023/06/06 03:54:16;;;;;;;15.88;9.07;;;;;;;7.17;100.00;93075.88;2570800;23;20005;-83
2023/06/06 03:55:25;;;;;;;14.38;9.45;;;;;;;7.19;100.00;93074.31;2558039;23;20013;-88
2023/06/06 03:56:45;;;;;;;13.18;8.63;;;;;;;7.26;100.00;93076.16;2573249;23;20087;-83
2023/06/06 03:57:55;;;;;;;12.20;9.07;;;;;;;7.21;100.00;93074.69;2561059;23;20126;-85
2023/06/06 03:59:02;;;;;;;15.13;9.43;;;;;;;7.24;100.00;93071.25;2569860;23;20013;-86
2023/06/06 04:00:18;;;;;;;11.18;8.35;;;;;;;7.22;100.00;93080.75;2583555;22;20312;-85
2023/06/06 04:01:31;;;;;;;14.18;9.82;;;;;;;7.21;100.00;93073.94;2580541;23;20012;-85
2023/06/06 04:02:48;;;;;;;11.75;8.73;;;;;;;7.28;100.00;93077.28;2578696;22;19995;-85
2023/06/06 04:03:57;;;;;;;11.80;8.70;;;;;;;7.30;100.00;93080.31;2593936;22;20007;-84
2023/06/06 04:05:05;;;;;;;12.95;9.23;;;;;;;7.34;100.00;93072.28;2582800;22;20012;-84
2023/06/06 04:06:15;;;;;;;11.68;8.88;;;;;;;7.35;100.00;93081.78;2570005;23;20051;-85
2023/06/06 04:07:18;;;;;;;14.23;9.25;;;;;;;7.36;100.00;93080.63;2571929;22;20123;-85
2023/06/06 04:08:25;;;;;;;13.85;8.88;;;;;;;7.37;100.00;93078.72;2581696;22;20019;-87
2023/06/06 04:09:32;;;;;;;30.30;10.18;;;;;;;7.40;100.00;93075.28;2580902;23;20011;-84
2023/06/06 04:10:40;;;;;;;27.02;10.00;;;;;;;7.40;100.00;93078.69;2570543;22;20004;-84
2023/06/06 04:11:48;;;;;;;19.33;8.75;;;;;;;7.37;100.00;93084.78;2582813;22;19996;-86
2023/06/06 04:12:53;;;;;;;23.55;9.60;;;;;;;7.38;100.00;93074.91;2580900;23;20008;-82
2023/06/06 04:14:02;;;;;;;32.83;10.40;;;;;;;7.39;100.00;93077.19;2580425;23;20008;-85
2023/06/06 04:15:10;;;;;;;19.63;9.73;;;;;;;7.41;100.00;93074.13;2571511;22;20054;-85
2023/06/06 04:16:17;;;;;;;16.77;9.63;;;;;;;7.46;100.00;93079.78;2569805;23;20011;-84
2023/06/06 04:17:35;;;;;;;28.98;10.10;;;;;;;7.54;100.00;93080.44;2571393;22;20005;-84
2023/06/06 04:18:41;;;;;;;20.35;9.32;;;;;;;7.51;100.00;93071.34;2576372;22;20728;-86
2023/06/06 04:19:50;;;;;;;27.88;10.13;;;;;;;7.55;100.00;93076.63;2576291;22;20000;-84
2023/06/06 04:20:55;;;;;;;20.80;9.95;;;;;;;7.51;100.00;93074.00;2564322;23;20000;-83
2023/06/06 04:21:59;;;;;;;20.50;9.85;;;;;;;7.53;100.00;93074.34;2554243;23;20012;-85
2023/06/06 04:23:08;;;;;;;22.15;10.18;;;;;;;7.54;100.00;93075.88;2550749;23;20071;-84
2023/06/06 04:24:15;;;;;;;16.10;9.32;;;;;;;7.60;100.00;93070.88;2565022;23;20158;-84
2023/06/06 04:25:19;;;;;;;24.85;10.38;;;;;;;7.67;100.00;93075.34;2555147;23;20004;-82
2023/06/06 04:26:31;;;;;;;20.67;9.98;;;;;;;7.67;100.00;93072.69;2566868;22;20008;-82
2023/06/06 04:27:40;;;;;;;22.80;9.57;;;;;;;7.68;100.00;93069.66;2568124;23;20335;-85
2023/06/06 04:28:48;;;;;;;15.10;9.45;;;;;;;7.71;100.00;93071.50;2567291;22;20086;-83
2023/06/06 04:29:58;;;;;;;15.90;9.82;;;;;;;7.75;100.00;93066.13;2579159;22;20070;-84
2023/06/06 04:31:07;;;;;;;19.83;10.73;;;;;;;7.75;100.00;93066.13;2565759;22;20008;-85
2023/06/06 04:32:19;;;;;;;24.83;9.63;;;;;;;7.76;100.00;93080.94;2566144;23;20008;-84
2023/06/06 04:33:30;;;;;;;15.02;10.13;;;;;;;7.81;100.00;93083.16;2557026;23;20043;-83
2023/06/06 04:34:35;;;;;;;19.15;9.45;;;;;;;7.84;100.00;93079.72;2556787;23;20011;-84
2023/06/06 04:35:43;;;;;;;15.35;9.88;;;;;;;7.89;100.00;93081.94;2569036;22;20000;-86
2023/06/06 04:36:53;;;;;;;15.30;9.43;;;;;;;7.91;100.00;93081.53;2565748;23;20314;-86
2023/06/06 04:37:57;;;;;;;15.55;9.38;;;;;;;7.94;100.00;93078.06;2566436;23;20008;-85
2023/06/06 04:39:01;;;;;;;15.95;9.80;;;;;;;7.95;100.00;93083.00;2565914;23;20036;-85
2023/06/06 04:40:10;;;;;;;18.95;9.35;;;;;;;7.97;100.00;93077.28;2554885;23;20088;-83
2023/06/06 04:41:14;;;;;;;14.68;10.23;;;;;;;8.00;100.00;93079.16;2569800;22;20015;-86
2023/06/06 04:42:35;;;;;;;16.52;9.70;;;;;;;8.04;100.00;93085.94;2578286;23;20418;-83
2023/06/06 04:43:49;;;;;;;14.55;9.40;;;;;;;8.11;100.00;93081.66;2570819;23;20007;-81
2023/06/06 04:44:50;;;;;;;13.48;9.48;;;;;;;8.15;100.00;93079.72;2556908;23;20345;-82
2023/06/06 04:45:53;;;;;;;16.45;10.65;;;;;;;8.19;100.00;93085.75;2565966;22;20383;-84
2023/06/06 04:47:00;;;;;;;17.80;9.85;;;;;;;8.24;100.00;93087.94;2566349;23;20809;-84
2023/06/06 04:48:02;;;;;;;17.23;10.10;;;;;;;8.26;100.00;93083.00;2580403;22;20057;-87
2023/06/06 04:49:03;;;;;;;13.18;9.40;;;;;;;8.27;100.00;93077.25;2577462;23;20015;-84
2023/06/06 04:50:06;;;;;;;19.23;11.10;;;;;;;8.33;100.00;93082.88;2552115;23;20005;-85
2023/06/06 04:51:08;;;;;;;17.77;11.40;;;;;;;8.35;100.00;93085.91;2578662;22;20461;-85
2023/06/06 04:52:16;;;;;;;14.73;10.65;;;;;;;8.39;100.00;93081.31;2578315;23;20427;-82
2023/06/06 04:53:19;;;;;;;16.45;10.55;;;;;;;8.42;100.00;93080.50;2554503;23;20005;-84
2023/06/06 04:54:23;;;;;;;15.98;10.85;;;;;;;8.46;100.00;93081.19;2565782;22;20012;-85
2023/06/06 04:55:27;;;;;;;17.95;10.68;;;;;;;8.49;100.00;93084.97;2578255;22;20024;-84
2023/06/06 04:56:29;;;;;;;15.25;9.98;;;;;;;8.52;100.00;93082.28;2577768;23;20053;-82
2023/06/06 04:57:45;;;;;;;17.05;11.30;;;;;;;8.55;100.00;93081.44;2581162;22;20038;-85
2023/06/06 04:58:48;;;;;;;21.58;11.07;;;;;;;8.59;100.00;93084.06;2564524;23;20005;-82
2023/06/06 04:59:52;;;;;;;17.25;10.73;;;;;;;8.64;100.00;93080.19;2577213;22;20358;-83
2023/06/06 05:00:53;;;;;;;19.08;10.70;;;;;;;8.68;100.00;93086.97;2589904;22;20535;-82
2023/06/06 05:02:02;;;;;;;20.83;11.82;;;;;;;8.71;100.00;93088.09;2578924;22;20031;-83
2023/06/06 05:03:03;;;;;;;17.70;11.45;;;;;;;8.76;100.00;93091.03;2564687;23;20008;-83
2023/06/06 05:04:04;;;;;;;21.35;11.43;;;;;;;8.79;100.00;93090.25;2553417;23;20020;-83
2023/06/06 05:05:09;;;;;;;16.95;10.85;;;;;;;8.85;100.00;93089.78;2553469;23;20004;-85
2023/06/06 05:06:10;;;;;;;16.52;10.88;;;;;;;8.96;100.00;93079.72;2555229;23;20047;-84
2023/06/06 05:07:12;;;;;;;19.48;11.68;;;;;;;9.01;100.00;93082.66;2566411;22;20011;-83
2023/06/06 05:08:14;;;;;;;18.45;11.63;;;;;;;9.04;100.00;93081.84;2564653;23;20051;-83
2023/06/06 05:09:20;;;;;;;18.90;11.43;;;;;;;9.05;100.00;93082.59;2578301;22;20000;-83
2023/06/06 05:10:21;;;;;;;19.83;11.35;;;;;;;9.08;100.00;93082.53;2577606;22;20008;-83
2023/06/06 05:11:25;;;;;;;18.65;11.43;;;;;;;9.14;100.00;93080.16;2577065;22;20381;-83
2023/06/06 05:12:26;;;;;;;19.23;11.95;;;;;;;9.18;100.00;93080.13;2564978;22;20344;-82
2023/06/06 05:13:27;;;;;;;18.15;11.68;;;;;;;9.22;100.00;93084.22;2552362;23;20015;-82
2023/06/06 05:14:28;;;;;;;17.92;11.95;;;;;;;9.26;100.00;93076.91;2564848;23;20121;-81
2023/06/06 05:15:29;;;;;;;18.67;11.70;;;;;;;9.29;100.00;93081.41;2577569;23;20161;-83
2023/06/06 05:16:30;;;;;;;19.60;13.10;;;;;;;9.33;100.00;93074.09;2577740;22;20030;-83
2023/06/06 05:17:55;;;;;;;17.25;12.15;;;;;;;9.39;100.00;93079.72;2576894;23;20139;-84
2023/06/06 05:18:56;;;;;;;20.40;12.18;;;;;;;9.44;100.00;93079.25;2573337;22;20008;-84
2023/06/06 05:19:58;;;;;;;19.90;12.80;;;;;;;9.47;100.00;93078.44;2564938;22;20012;-84
2023/06/06 05:21:02;;;;;;;18.75;12.23;;;;;;;9.51;100.00;93081.78;2565249;22;20091;-82
2023/06/06 05:22:04;;;;;;;22.05;12.50;;;;;;;9.55;100.00;93071.06;2578312;22;20317;-83
2023/06/06 05:23:06;;;;;;;18.25;11.98;;;;;;;9.60;100.00;93075.91;2590361;22;20295;-81
2023/06/06 05:24:08;;;;;;;23.95;12.27;;;;;;;9.68;100.00;93071.19;2577711;23;20014;-81
2023/06/06 05:25:10;;;;;;;19.40;11.70;;;;;;;9.71;100.00;93075.72;2553027;23;20321;-85
2023/06/06 05:26:11;;;;;;;17.35;11.35;;;;;;;9.76;100.00;93080.59;2553275;23;20318;-83
2023/06/06 05:27:13;;;;;;;20.73;12.55;;;;;;;9.84;100.00;93074.69;2565317;22;20376;-83
2023/06/06 05:28:15;;;;;;;20.58;12.50;;;;;;;9.87;100.00;93077.69;2564742;23;20032;-83
2023/06/06 05:29:16;;;;;;;19.42;11.77;;;;;;;9.92;100.00;93077.97;2553437;23;20066;-82
2023/06/06 05:30:18;;;;;;;19.40;12.07;;;;;;;9.98;100.00;93078.25;2564328;22;20147;-84
2023/06/06 05:31:22;;;;;;;21.15;13.27;;;;;;;10.05;100.00;93078.84;2582320;22;20023;-82
2023/06/06 05:32:23;;;;;;;18.77;12.27;;;;;;;10.09;100.00;93089.44;2590114;22;20435;-82
2023/06/06 05:33:26;;;;;;;23.90;12.95;;;;;;;10.15;100.00;93082.47;2577363;22;20011;-84
2023/06/06 05:34:27;;;;;;;28.10;12.40;;;;;;;10.23;100.00;93083.09;2577600;22;20042;-82
2023/06/06 05:35:28;;;;;;;18.88;12.50;;;;;;;10.30;100.00;93089.03;2576996;23;20000;-83
2023/06/06 05:36:30;;;;;;;28.58;13.73;;;;;;;10.37;100.00;93082.06;2577373;22;20011;-84
2023/06/06 05:37:49;;;;;;;23.88;13.27;;;;;;;10.46;100.00;93082.25;2581267;22;20537;-83
2023/06/06 05:38:50;;;;;;;21.80;12.73;;;;;;;10.49;100.00;93084.84;2580784;22;20070;-82
2023/06/06 05:39:51;;;;;;;22.85;13.48;;;;;;;10.57;100.00;93086.16;2576915;22;20368;-83
2023/06/06 05:40:52;;;;;;;22.58;12.30;;;;;;;10.64;100.00;93087.19;2589626;22;20026;-82
2023/06/06 05:41:54;;;;;;;17.35;13.25;;;;;;;10.72;100.00;93085.88;2576628;23;20039;-82
2023/06/06 05:43:00;;;;;;;20.88;12.52;;;;;;;10.76;100.00;93079.25;2577266;22;20367;-82
2023/06/06 05:44:02;;;;;;;22.40;14.00;;;;;;;10.84;100.00;93083.28;2577646;22;20351;-83
2023/06/06 05:45:05;;;;;;;20.55;12.95;;;;;;;10.90;100.00;93088.88;2565124;23;20487;-84
2023/06/06 05:46:07;;;;;;;23.20;13.13;;;;;;;10.94;100.00;93076.16;2565362;22;20012;-84
2023/06/06 05:47:20;;;;;;;21.08;13.18;;;;;;;11.03;100.00;93079.00;2579787;22;20477;-81
2023/06/06 05:48:21;;;;;;;29.58;13.13;;;;;;;11.10;100.00;93086.09;2577253;22;20085;-80
2023/06/06 05:49:25;;;;;;;20.50;12.75;;;;;;;11.17;100.00;93085.94;2576216;23;20027;-84
2023/06/06 05:50:28;;;;;;;24.15;13.05;;;;;;;11.21;100.00;93088.53;2564771;23;20428;-84
2023/06/06 05:51:34;;;;;;;28.25;13.90;;;;;;;11.31;100.00;93084.81;2552337;23;20120;-82
2023/06/06 05:52:37;;;;;;;24.13;13.52;;;;;;;11.40;100.00;93084.22;2564946;22;20008;-81
2023/06/06 05:53:45;;;;;;;22.88;13.07;;;;;;;11.46;100.00;93091.34;2575357;22;20248;-82
2023/06/06 05:54:47;;;;;;;21.17;12.68;;;;;;;11.54;100.00;93094.56;2577258;22;20149;-82
2023/06/06 05:55:49;;;;;;;19.23;12.77;;;;;;;11.59;100.00;93094.06;2575671;22;20070;-82
2023/06/06 05:56:51;;;;;;;18.85;11.65;;;;;;;11.66;100.00;93085.84;2563535;23;20515;-84
2023/06/06 05:57:52;;;;;;;17.35;11.75;;;;;;;11.75;100.00;93096.69;2551190;23;20001;-84
2023/06/06 05:58:53;;;;;;;15.10;10.95;;;;;;;11.81;100.00;93086.22;2551055;23;20005;-84
2023/06/06 06:00:00;;;;;;;17.20;11.95;;;;;;;11.88;100.00;93087.97;2563147;23;20066;-82
2023/06/06 06:01:02;;;;;;;14.00;10.73;;;;;;;11.91;100.00;93095.16;2576380;22;20077;-82
2023/06/06 06:02:18;;;;;;;12.90;10.70;;;;;;;11.97;100.00;93094.22;2579223;22;20169;-84
2023/06/06 06:03:21;;;;;;;14.73;9.90;;;;;;;12.06;100.00;93090.91;2578956;22;20015;-83
2023/06/06 06:04:23;;;;;;;12.38;9.80;;;;;;;12.24;100.00;93087.72;2576189;22;20439;-85
2023/06/06 06:05:29;;;;;;;16.75;10.10;;;;;;;12.32;100.00;93091.72;2563134;23;20251;-83
2023/06/06 06:06:31;;;;;;;16.52;10.32;;;;;;;12.43;100.00;93086.81;2565018;22;20068;-84
2023/06/06 06:07:34;;;;;;;11.07;9.38;;;;;;;12.45;100.00;93089.06;2577074;22;20012;-84
2023/06/06 06:08:36;;;;;;;17.23;9.68;;;;;;;12.49;100.00;93090.44;2563800;23;20646;-82
2023/06/06 06:09:38;;;;;;;11.60;9.07;;;;;;;12.50;100.00;93091.94;2576265;23;20011;-83
2023/06/06 06:10:40;;;;;;;11.98;8.30;;;;;;;12.58;100.00;93087.88;2563533;23;20731;-81
2023/06/06 06:11:44;;;;;;;10.65;8.63;;;;;;;12.63;100.00;93083.16;2575960;22;20000;-83
2023/06/06 06:12:48;;;;;;;11.55;8.65;;;;;;;12.73;100.00;93085.53;2576767;22;20004;-83
2023/06/06 06:13:50;;;;;;;10.80;8.27;;;;;;;12.81;100.00;93080.69;2564584;23;20074;-84
2023/06/06 06:14:52;;;;;;;10.00;8.02;;;;;;;12.85;100.00;93084.00;2564086;23;20054;-82
2023/06/06 06:15:53;;;;;;;9.02;7.75;;;;;;;12.82;100.00;93091.00;2551712;23;20467;-84
2023/06/06 06:16:53;;;;;;;8.38;7.47;;;;;;;12.81;100.00;93083.38;2550913;23;20004;-82
2023/06/06 06:17:55;;;;;;;11.48;8.45;;;;;;;12.85;100.00;93087.44;2563259;22;20036;-84
2023/06/06 06:18:56;;;;;;;8.75;7.55;;;;;;;12.95;100.00;93088.31;2576243;22;20343;-82
2023/06/06 06:19:57;;;;;;;8.77;7.38;;;;;;;12.97;100.00;93091.31;2576431;22;20008;-82
2023/06/06 06:21:00;;;;;;;8.90;7.00;;;;;;;12.97;100.00;93093.97;2576603;23;20024;-82
2023/06/06 06:22:03;;;;;;;8.52;7.10;;;;;;;12.97;100.00;93093.22;2577274;22;20008;-84
2023/06/06 06:23:05;;;;;;;9.60;6.75;;;;;;;12.98;100.00;93095.47;2564322;23;20005;-83
2023/06/06 06:24:08;;;;;;;11.77;7.18;;;;;;;13.02;100.00;93093.44;2564755;23;20005;-82
2023/06/06 06:25:13;;;;;;;8.95;6.80;;;;;;;13.08;100.00;93097.09;2552214;23;20693;-83
2023/06/06 06:26:15;;;;;;;7.93;6.70;;;;;;;13.16;100.00;93094.16;2553603;23;20499;-83
2023/06/06 06:27:32;;;;;;;6.88;6.18;;;;;;;13.17;100.00;93093.75;2557340;23;20017;-82
2023/06/06 06:28:33;;;;;;;9.07;6.35;;;;;;;13.18;100.00;93092.56;2567566;22;20131;-83
2023/06/06 06:29:36;;;;;;;9.13;6.30;;;;;;;13.26;100.00;93087.75;2576422;22;20482;-82
2023/06/06 06:30:38;;;;;;;7.20;6.40;;;;;;;13.28;100.00;93096.09;2563816;23;20305;-82
2023/06/06 06:31:39;;;;;;;6.65;6.05;;;;;;;13.40;100.00;93089.97;2551126;23;20021;-82
2023/06/06 06:32:43;;;;;;;8.18;6.18;;;;;;;13.43;100.00;93091.75;2576792;22;20018;-83
2023/06/06 06:33:44;;;;;;;7.28;6.18;;;;;;;13.45;100.00;93096.72;2566126;22;20328;-83
2023/06/06 06:34:45;;;;;;;7.22;6.03;;;;;;;13.53;100.00;93098.00;2564501;23;20126;-83
2023/06/06 06:35:46;;;;;;;6.45;5.85;;;;;;;13.59;100.00;93096.25;2563448;23;20028;-83
2023/06/06 06:36:47;;;;;;;7.05;5.57;;;;;;;13.59;100.00;93099.66;2563767;23;20399;-83
2023/06/06 06:37:51;;;;;;;6.20;5.40;;;;;;;13.75;100.00;93098.03;2576969;22;20004;-84
2023/06/06 06:38:53;;;;;;;9.13;5.80;;;;;;;13.77;100.00;93088.31;2576430;23;20031;-84
2023/06/06 06:39:54;;;;;;;5.70;5.20;;;;;;;13.80;100.00;93092.09;2577477;22;20004;-83
2023/06/06 06:40:55;;;;;;;6.32;5.60;;;;;;;13.95;100.00;93095.75;2587268;22;20004;-85
2023/06/06 06:41:56;;;;;;;5.55;5.05;;;;;;;13.93;100.00;93098.16;2563585;23;20000;-84
2023/06/06 06:42:57;;;;;;;6.05;5.00;;;;;;;13.95;100.00;93101.13;2563790;23;20039;-82
2023/06/06 06:43:58;;;;;;;5.82;4.90;;;;;;;14.02;100.00;93095.53;2564098;23;20000;-84
2023/06/06 06:44:59;;;;;;;6.00;5.40;;;;;;;14.07;100.00;93100.34;2564389;23;20059;-82
2023/06/06 06:46:00;;;;;;;5.43;4.60;;;;;;;14.22;100.00;93102.50;2564235;23;20008;-84
2023/06/06 06:47:03;;;;;;;5.07;4.68;;;;;;;14.15;100.00;93098.16;2564099;22;20000;-82
2023/06/06 06:48:05;;;;;;;5.35;4.85;;;;;;;14.28;100.00;93104.22;2577195;22;20054;-83
2023/06/06 06:49:14;;;;;;;6.63;5.20;;;;;;;14.33;100.00;93105.56;2576731;23;20374;-84
2023/06/06 06:50:15;;;;;;;5.25;4.75;;;;;;;14.44;100.00;93102.50;2555298;23;20332;-82
2023/06/06 06:51:16;;;;;;;5.25;4.75;;;;;;;14.46;100.00;93106.25;2551721;23;20005;-81
2023/06/06 06:52:17;;;;;;;5.68;4.82;;;;;;;14.51;100.00;93107.66;2563889;23;20656;-82
2023/06/06 06:53:23;;;;;;;6.18;4.57;;;;;;;14.61;100.00;93109.94;2563810;23;20020;-82
2023/06/06 06:54:26;;;;;;;6.65;4.50;;;;;;;14.57;100.00;93111.25;2553212;23;20020;-83
2023/06/06 06:55:28;;;;;;;8.45;4.60;;;;;;;14.54;100.00;93114.84;2552087;23;20009;-82